sensor_id;sensor_type;location;lat;lon;timestamp;P1;P2;P0
62236;PMS5003;69163;48.778;2.308;2023-05-07T00:00:22;3;2;
62236;PMS5003;69163;48.778;2.308;2023-05-07T00:02:47;4;4;
62236;PMS5003;69163;48.778;2.308;2023-05-07T00:05:13;1;1;
62236;PMS5003;69163;48.778;2.308;2023-05-07T00:07:38;3;3;
62236;PMS5003;69163;48.778;2.308;2023-05-07T00:10:04;1;1;
62236;PMS5003;69163;48.778;2.308;2023-05-07T00:12:29;6;4;
62236;PMS5003;69163;48.778;2.308;2023-05-07T00:14:54;3;3;
62236;PMS5003;69163;48.778;2.308;2023-05-07T00:17:19;3;3;
62236;PMS5003;69163;48.778;2.308;2023-05-07T00:19:44;3;3;
62236;PMS5003;69163;48.778;2.308;2023-05-07T00:22:09;2;2;
62236;PMS5003;69163;48.778;2.308;2023-05-07T00:24:35;3;3;
62236;PMS5003;69163;48.778;2.308;2023-05-07T00:27:00;3;3;
62236;PMS5003;69163;48.778;2.308;2023-05-07T00:29:25;2;2;
62236;PMS5003;69163;48.778;2.308;2023-05-07T00:31:50;3;3;
62236;PMS5003;69163;48.778;2.308;2023-05-07T00:34:15;4;4;
62236;PMS5003;69163;48.778;2.308;2023-05-07T00:36:41;3;3;
62236;PMS5003;69163;48.778;2.308;2023-05-07T00:39:06;2;2;
62236;PMS5003;69163;48.778;2.308;2023-05-07T00:41:31;3;3;
62236;PMS5003;69163;48.778;2.308;2023-05-07T00:43:56;2;2;
62236;PMS5003;69163;48.778;2.308;2023-05-07T00:46:21;3;3;
62236;PMS5003;69163;48.778;2.308;2023-05-07T00:48:47;3;3;
62236;PMS5003;69163;48.778;2.308;2023-05-07T00:51:12;3;3;
62236;PMS5003;69163;48.778;2.308;2023-05-07T00:53:37;3;3;
62236;PMS5003;69163;48.778;2.308;2023-05-07T00:56:02;1;1;
62236;PMS5003;69163;48.778;2.308;2023-05-07T00:58:28;4;3;
62236;PMS5003;69163;48.778;2.308;2023-05-07T01:00:53;2;2;
62236;PMS5003;69163;48.778;2.308;2023-05-07T01:03:18;3;3;
62236;PMS5003;69163;48.778;2.308;2023-05-07T01:05:43;1;1;
62236;PMS5003;69163;48.778;2.308;2023-05-07T01:08:08;2;2;
62236;PMS5003;69163;48.778;2.308;2023-05-07T01:10:34;3;3;
62236;PMS5003;69163;48.778;2.308;2023-05-07T01:12:59;4;3;
62236;PMS5003;69163;48.778;2.308;2023-05-07T01:15:24;4;4;
62236;PMS5003;69163;48.778;2.308;2023-05-07T01:17:49;3;3;
62236;PMS5003;69163;48.778;2.308;2023-05-07T01:20:14;2;2;
62236;PMS5003;69163;48.778;2.308;2023-05-07T01:22:40;4;2;
62236;PMS5003;69163;48.778;2.308;2023-05-07T01:25:06;2;2;
62236;PMS5003;69163;48.778;2.308;2023-05-07T01:27:30;4;3;
62236;PMS5003;69163;48.778;2.308;2023-05-07T01:29:56;4;3;
62236;PMS5003;69163;48.778;2.308;2023-05-07T01:32:21;3;3;
62236;PMS5003;69163;48.778;2.308;2023-05-07T01:34:46;3;3;
62236;PMS5003;69163;48.778;2.308;2023-05-07T01:37:11;2;2;
62236;PMS5003;69163;48.778;2.308;2023-05-07T01:39:37;1;1;
62236;PMS5003;69163;48.778;2.308;2023-05-07T01:42:02;3;3;
62236;PMS5003;69163;48.778;2.308;2023-05-07T01:44:27;3;1;
62236;PMS5003;69163;48.778;2.308;2023-05-07T01:46:52;4;3;
62236;PMS5003;69163;48.778;2.308;2023-05-07T01:49:17;2;2;
62236;PMS5003;69163;48.778;2.308;2023-05-07T01:51:42;4;3;
62236;PMS5003;69163;48.778;2.308;2023-05-07T01:54:08;2;2;
62236;PMS5003;69163;48.778;2.308;2023-05-07T01:56:33;4;4;
62236;PMS5003;69163;48.778;2.308;2023-05-07T01:58:58;3;3;
62236;PMS5003;69163;48.778;2.308;2023-05-07T02:01:23;4;4;
62236;PMS5003;69163;48.778;2.308;2023-05-07T02:03:48;3;3;
62236;PMS5003;69163;48.778;2.308;2023-05-07T02:06:13;2;2;
62236;PMS5003;69163;48.778;2.308;2023-05-07T02:08:39;4;2;
62236;PMS5003;69163;48.778;2.308;2023-05-07T02:11:04;2;2;
62236;PMS5003;69163;48.778;2.308;2023-05-07T02:13:31;3;3;
62236;PMS5003;69163;48.778;2.308;2023-05-07T02:15:54;3;3;
62236;PMS5003;69163;48.778;2.308;2023-05-07T02:18:20;4;2;
62236;PMS5003;69163;48.778;2.308;2023-05-07T02:20:45;4;3;
62236;PMS5003;69163;48.778;2.308;2023-05-07T02:23:10;3;3;
62236;PMS5003;69163;48.778;2.308;2023-05-07T02:25:35;5;4;
62236;PMS5003;69163;48.778;2.308;2023-05-07T02:28:01;5;5;
62236;PMS5003;69163;48.778;2.308;2023-05-07T02:30:26;6;5;
62236;PMS5003;69163;48.778;2.308;2023-05-07T02:32:51;7;6;
62236;PMS5003;69163;48.778;2.308;2023-05-07T02:35:16;11;8;
62236;PMS5003;69163;48.778;2.308;2023-05-07T02:37:42;5;5;
62236;PMS5003;69163;48.778;2.308;2023-05-07T02:40:08;6;5;
62236;PMS5003;69163;48.778;2.308;2023-05-07T02:42:33;5;5;
62236;PMS5003;69163;48.778;2.308;2023-05-07T02:44:58;4;4;
62236;PMS5003;69163;48.778;2.308;2023-05-07T02:47:23;4;4;
62236;PMS5003;69163;48.778;2.308;2023-05-07T02:49:48;5;3;
62236;PMS5003;69163;48.778;2.308;2023-05-07T02:52:13;5;3;
62236;PMS5003;69163;48.778;2.308;2023-05-07T02:54:39;5;4;
62236;PMS5003;69163;48.778;2.308;2023-05-07T02:57:04;7;4;
62236;PMS5003;69163;48.778;2.308;2023-05-07T02:59:29;7;6;
62236;PMS5003;69163;48.778;2.308;2023-05-07T03:01:54;4;4;
62236;PMS5003;69163;48.778;2.308;2023-05-07T03:04:19;6;3;
62236;PMS5003;69163;48.778;2.308;2023-05-07T03:06:45;4;4;
62236;PMS5003;69163;48.778;2.308;2023-05-07T03:09:10;5;2;
62236;PMS5003;69163;48.778;2.308;2023-05-07T03:11:35;4;4;
62236;PMS5003;69163;48.778;2.308;2023-05-07T03:14:00;4;3;
62236;PMS5003;69163;48.778;2.308;2023-05-07T03:16:25;3;3;
62236;PMS5003;69163;48.778;2.308;2023-05-07T03:18:51;3;3;
62236;PMS5003;69163;48.778;2.308;2023-05-07T03:21:16;4;4;
62236;PMS5003;69163;48.778;2.308;2023-05-07T03:23:41;4;4;
62236;PMS5003;69163;48.778;2.308;2023-05-07T03:26:06;3;3;
62236;PMS5003;69163;48.778;2.308;2023-05-07T03:28:32;6;3;
62236;PMS5003;69163;48.778;2.308;2023-05-07T03:30:57;3;3;
62236;PMS5003;69163;48.778;2.308;2023-05-07T03:33:22;5;3;
62236;PMS5003;69163;48.778;2.308;2023-05-07T03:35:47;4;4;
62236;PMS5003;69163;48.778;2.308;2023-05-07T03:38:12;3;3;
62236;PMS5003;69163;48.778;2.308;2023-05-07T03:40:37;4;4;
62236;PMS5003;69163;48.778;2.308;2023-05-07T03:43:03;3;3;
62236;PMS5003;69163;48.778;2.308;2023-05-07T03:45:29;3;3;
62236;PMS5003;69163;48.778;2.308;2023-05-07T03:47:54;5;5;
62236;PMS5003;69163;48.778;2.308;2023-05-07T03:50:19;3;3;
62236;PMS5003;69163;48.778;2.308;2023-05-07T03:52:44;3;3;
62236;PMS5003;69163;48.778;2.308;2023-05-07T03:55:09;3;2;
62236;PMS5003;69163;48.778;2.308;2023-05-07T03:57:35;3;3;
62236;PMS5003;69163;48.778;2.308;2023-05-07T04:00:00;3;3;
62236;PMS5003;69163;48.778;2.308;2023-05-07T04:02:25;3;3;
62236;PMS5003;69163;48.778;2.308;2023-05-07T04:04:51;2;2;
62236;PMS5003;69163;48.778;2.308;2023-05-07T04:07:16;5;3;
62236;PMS5003;69163;48.778;2.308;2023-05-07T04:09:41;5;4;
62236;PMS5003;69163;48.778;2.308;2023-05-07T04:12:06;4;2;
62236;PMS5003;69163;48.778;2.308;2023-05-07T04:14:31;3;3;
62236;PMS5003;69163;48.778;2.308;2023-05-07T04:16:56;4;3;
62236;PMS5003;69163;48.778;2.308;2023-05-07T04:19:22;2;2;
62236;PMS5003;69163;48.778;2.308;2023-05-07T04:21:47;2;2;
62236;PMS5003;69163;48.778;2.308;2023-05-07T04:24:12;2;2;
62236;PMS5003;69163;48.778;2.308;2023-05-07T04:26:37;4;4;
62236;PMS5003;69163;48.778;2.308;2023-05-07T04:29:02;3;2;
62236;PMS5003;69163;48.778;2.308;2023-05-07T04:31:28;4;2;
62236;PMS5003;69163;48.778;2.308;2023-05-07T04:33:53;4;3;
62236;PMS5003;69163;48.778;2.308;2023-05-07T04:36:18;2;2;
62236;PMS5003;69163;48.778;2.308;2023-05-07T04:38:43;2;2;
62236;PMS5003;69163;48.778;2.308;2023-05-07T04:41:09;3;3;
62236;PMS5003;69163;48.778;2.308;2023-05-07T04:43:34;2;2;
62236;PMS5003;69163;48.778;2.308;2023-05-07T04:45:59;3;2;
62236;PMS5003;69163;48.778;2.308;2023-05-07T04:48:24;3;3;
62236;PMS5003;69163;48.778;2.308;2023-05-07T04:50:50;2;2;
62236;PMS5003;69163;48.778;2.308;2023-05-07T04:53:15;4;4;
62236;PMS5003;69163;48.778;2.308;2023-05-07T04:55:40;2;2;
62236;PMS5003;69163;48.778;2.308;2023-05-07T04:58:05;3;1;
62236;PMS5003;69163;48.778;2.308;2023-05-07T05:00:30;1;1;
62236;PMS5003;69163;48.778;2.308;2023-05-07T05:02:56;2;2;
62236;PMS5003;69163;48.778;2.308;2023-05-07T05:05:21;3;2;
62236;PMS5003;69163;48.778;2.308;2023-05-07T05:07:46;4;2;
62236;PMS5003;69163;48.778;2.308;2023-05-07T05:10:11;2;2;
62236;PMS5003;69163;48.778;2.308;2023-05-07T05:12:36;3;3;
62236;PMS5003;69163;48.778;2.308;2023-05-07T05:15:01;1;1;
62236;PMS5003;69163;48.778;2.308;2023-05-07T05:17:27;3;3;
62236;PMS5003;69163;48.778;2.308;2023-05-07T05:19:52;2;2;
62236;PMS5003;69163;48.778;2.308;2023-05-07T05:22:17;2;2;
62236;PMS5003;69163;48.778;2.308;2023-05-07T05:24:42;2;1;
62236;PMS5003;69163;48.778;2.308;2023-05-07T05:27:08;2;2;
62236;PMS5003;69163;48.778;2.308;2023-05-07T05:29:33;2;2;
62236;PMS5003;69163;48.778;2.308;2023-05-07T05:31:58;2;2;
62236;PMS5003;69163;48.778;2.308;2023-05-07T05:34:23;4;3;
62236;PMS5003;69163;48.778;2.308;2023-05-07T05:36:49;3;3;
62236;PMS5003;69163;48.778;2.308;2023-05-07T05:39:14;1;1;
62236;PMS5003;69163;48.778;2.308;2023-05-07T05:41:39;4;4;
62236;PMS5003;69163;48.778;2.308;2023-05-07T05:44:04;2;2;
62236;PMS5003;69163;48.778;2.308;2023-05-07T05:46:29;2;2;
62236;PMS5003;69163;48.778;2.308;2023-05-07T05:48:55;1;1;
62236;PMS5003;69163;48.778;2.308;2023-05-07T05:51:20;3;3;
62236;PMS5003;69163;48.778;2.308;2023-05-07T05:53:45;1;1;
62236;PMS5003;69163;48.778;2.308;2023-05-07T05:56:10;2;2;
62236;PMS5003;69163;48.778;2.308;2023-05-07T05:58:35;4;2;
62236;PMS5003;69163;48.778;2.308;2023-05-07T06:01:01;3;1;
62236;PMS5003;69163;48.778;2.308;2023-05-07T06:03:26;1;1;
62236;PMS5003;69163;48.778;2.308;2023-05-07T06:05:51;1;1;
62236;PMS5003;69163;48.778;2.308;2023-05-07T06:08:16;3;2;
62236;PMS5003;69163;48.778;2.308;2023-05-07T06:10:42;3;3;
62236;PMS5003;69163;48.778;2.308;2023-05-07T06:13:07;3;3;
62236;PMS5003;69163;48.778;2.308;2023-05-07T06:15:32;1;1;
62236;PMS5003;69163;48.778;2.308;2023-05-07T06:17:57;2;1;
62236;PMS5003;69163;48.778;2.308;2023-05-07T06:20:23;1;1;
62236;PMS5003;69163;48.778;2.308;2023-05-07T06:22:48;2;2;
62236;PMS5003;69163;48.778;2.308;2023-05-07T06:25:13;1;1;
62236;PMS5003;69163;48.778;2.308;2023-05-07T06:27:38;2;2;
62236;PMS5003;69163;48.778;2.308;2023-05-07T06:30:04;2;2;
62236;PMS5003;69163;48.778;2.308;2023-05-07T06:32:29;2;2;
62236;PMS5003;69163;48.778;2.308;2023-05-07T06:34:54;1;1;
62236;PMS5003;69163;48.778;2.308;2023-05-07T06:37:19;1;1;
62236;PMS5003;69163;48.778;2.308;2023-05-07T06:39:44;1;1;
62236;PMS5003;69163;48.778;2.308;2023-05-07T06:42:09;1;1;
62236;PMS5003;69163;48.778;2.308;2023-05-07T06:44:35;1;1;
62236;PMS5003;69163;48.778;2.308;2023-05-07T06:47:00;2;2;
62236;PMS5003;69163;48.778;2.308;2023-05-07T06:49:25;2;2;
62236;PMS5003;69163;48.778;2.308;2023-05-07T06:51:50;1;1;
62236;PMS5003;69163;48.778;2.308;2023-05-07T06:54:15;3;1;
62236;PMS5003;69163;48.778;2.308;2023-05-07T06:56:41;1;1;
62236;PMS5003;69163;48.778;2.308;2023-05-07T06:59:06;2;2;
62236;PMS5003;69163;48.778;2.308;2023-05-07T07:01:31;2;2;
62236;PMS5003;69163;48.778;2.308;2023-05-07T07:03:56;0;0;
62236;PMS5003;69163;48.778;2.308;2023-05-07T07:06:21;2;2;
62236;PMS5003;69163;48.778;2.308;2023-05-07T07:08:47;2;1;
62236;PMS5003;69163;48.778;2.308;2023-05-07T07:11:12;1;1;
62236;PMS5003;69163;48.778;2.308;2023-05-07T07:13:37;1;1;
62236;PMS5003;69163;48.778;2.308;2023-05-07T07:16:02;1;1;
62236;PMS5003;69163;48.778;2.308;2023-05-07T07:18:27;0;0;
62236;PMS5003;69163;48.778;2.308;2023-05-07T07:20:53;2;2;
62236;PMS5003;69163;48.778;2.308;2023-05-07T07:23:18;1;1;
62236;PMS5003;69163;48.778;2.308;2023-05-07T07:25:43;2;2;
62236;PMS5003;69163;48.778;2.308;2023-05-07T07:28:08;0;0;
62236;PMS5003;69163;48.778;2.308;2023-05-07T07:30:34;1;1;
62236;PMS5003;69163;48.778;2.308;2023-05-07T07:32:59;2;2;
62236;PMS5003;69163;48.778;2.308;2023-05-07T07:35:24;0;0;
62236;PMS5003;69163;48.778;2.308;2023-05-07T07:37:49;2;1;
62236;PMS5003;69163;48.778;2.308;2023-05-07T07:40:14;1;1;
62236;PMS5003;69163;48.778;2.308;2023-05-07T07:42:40;1;1;
62236;PMS5003;69163;48.778;2.308;2023-05-07T07:45:05;1;1;
62236;PMS5003;69163;48.778;2.308;2023-05-07T07:47:30;2;2;
62236;PMS5003;69163;48.778;2.308;2023-05-07T07:49:55;1;1;
62236;PMS5003;69163;48.778;2.308;2023-05-07T07:52:20;2;2;
62236;PMS5003;69163;48.778;2.308;2023-05-07T07:54:46;1;1;
62236;PMS5003;69163;48.778;2.308;2023-05-07T07:57:11;1;1;
62236;PMS5003;69163;48.778;2.308;2023-05-07T07:59:36;0;0;
62236;PMS5003;69163;48.778;2.308;2023-05-07T08:02:01;1;1;
62236;PMS5003;69163;48.778;2.308;2023-05-07T08:04:26;1;1;
62236;PMS5003;69163;48.778;2.308;2023-05-07T08:06:52;0;0;
62236;PMS5003;69163;48.778;2.308;2023-05-07T08:09:17;1;1;
62236;PMS5003;69163;48.778;2.308;2023-05-07T08:11:42;1;1;
62236;PMS5003;69163;48.778;2.308;2023-05-07T08:14:07;1;1;
62236;PMS5003;69163;48.778;2.308;2023-05-07T08:16:33;2;2;
62236;PMS5003;69163;48.778;2.308;2023-05-07T08:18:58;0;0;
62236;PMS5003;69163;48.778;2.308;2023-05-07T08:21:23;2;2;
62236;PMS5003;69163;48.778;2.308;2023-05-07T08:23:48;1;0;
62236;PMS5003;69163;48.778;2.308;2023-05-07T08:26:13;2;2;
62236;PMS5003;69163;48.778;2.308;2023-05-07T08:28:39;1;1;
62236;PMS5003;69163;48.778;2.308;2023-05-07T08:31:04;0;0;
62236;PMS5003;69163;48.778;2.308;2023-05-07T08:33:29;2;2;
62236;PMS5003;69163;48.778;2.308;2023-05-07T08:35:54;1;1;
62236;PMS5003;69163;48.778;2.308;2023-05-07T08:38:20;0;0;
62236;PMS5003;69163;48.778;2.308;2023-05-07T08:40:45;0;0;
62236;PMS5003;69163;48.778;2.308;2023-05-07T08:43:10;0;0;
62236;PMS5003;69163;48.778;2.308;2023-05-07T08:45:35;1;1;
62236;PMS5003;69163;48.778;2.308;2023-05-07T08:48:02;1;1;
62236;PMS5003;69163;48.778;2.308;2023-05-07T08:50:25;1;1;
62236;PMS5003;69163;48.778;2.308;2023-05-07T08:52:51;0;0;
62236;PMS5003;69163;48.778;2.308;2023-05-07T08:55:16;0;0;
62236;PMS5003;69163;48.778;2.308;2023-05-07T08:57:41;1;1;
62236;PMS5003;69163;48.778;2.308;2023-05-07T09:00:07;1;1;
62236;PMS5003;69163;48.778;2.308;2023-05-07T09:02:32;1;1;
62236;PMS5003;69163;48.778;2.308;2023-05-07T09:04:57;2;2;
62236;PMS5003;69163;48.778;2.308;2023-05-07T09:07:22;0;0;
62236;PMS5003;69163;48.778;2.308;2023-05-07T09:09:47;1;1;
62236;PMS5003;69163;48.778;2.308;2023-05-07T09:12:12;1;1;
62236;PMS5003;69163;48.778;2.308;2023-05-07T09:14:38;1;1;
62236;PMS5003;69163;48.778;2.308;2023-05-07T09:17:03;1;1;
62236;PMS5003;69163;48.778;2.308;2023-05-07T09:19:28;1;1;
62236;PMS5003;69163;48.778;2.308;2023-05-07T09:21:59;0;0;
62236;PMS5003;69163;48.778;2.308;2023-05-07T09:24:18;0;0;
62236;PMS5003;69163;48.778;2.308;2023-05-07T09:26:44;1;1;
62236;PMS5003;69163;48.778;2.308;2023-05-07T09:29:10;1;1;
62236;PMS5003;69163;48.778;2.308;2023-05-07T09:31:36;0;0;
62236;PMS5003;69163;48.778;2.308;2023-05-07T09:33:59;3;2;
62236;PMS5003;69163;48.778;2.308;2023-05-07T09:36:24;1;1;
62236;PMS5003;69163;48.778;2.308;2023-05-07T09:38:50;0;0;
62236;PMS5003;69163;48.778;2.308;2023-05-07T09:41:15;1;1;
62236;PMS5003;69163;48.778;2.308;2023-05-07T09:43:40;1;1;
62236;PMS5003;69163;48.778;2.308;2023-05-07T09:46:07;2;2;
62236;PMS5003;69163;48.778;2.308;2023-05-07T09:48:30;1;1;
62236;PMS5003;69163;48.778;2.308;2023-05-07T09:50:56;1;1;
62236;PMS5003;69163;48.778;2.308;2023-05-07T09:53:21;0;0;
62236;PMS5003;69163;48.778;2.308;2023-05-07T09:55:46;0;0;
62236;PMS5003;69163;48.778;2.308;2023-05-07T09:58:11;1;1;
62236;PMS5003;69163;48.778;2.308;2023-05-07T10:00:36;1;1;
62236;PMS5003;69163;48.778;2.308;2023-05-07T10:03:02;2;2;
62236;PMS5003;69163;48.778;2.308;2023-05-07T10:05:27;1;1;
62236;PMS5003;69163;48.778;2.308;2023-05-07T10:07:52;0;0;
62236;PMS5003;69163;48.778;2.308;2023-05-07T10:10:17;1;1;
62236;PMS5003;69163;48.778;2.308;2023-05-07T10:12:42;1;1;
62236;PMS5003;69163;48.778;2.308;2023-05-07T10:15:08;1;1;
62236;PMS5003;69163;48.778;2.308;2023-05-07T10:17:33;0;0;
62236;PMS5003;69163;48.778;2.308;2023-05-07T10:19:58;2;1;
62236;PMS5003;69163;48.778;2.308;2023-05-07T10:22:23;1;1;
62236;PMS5003;69163;48.778;2.308;2023-05-07T10:24:48;4;2;
62236;PMS5003;69163;48.778;2.308;2023-05-07T10:27:14;3;1;
62236;PMS5003;69163;48.778;2.308;2023-05-07T10:29:42;1;1;
62236;PMS5003;69163;48.778;2.308;2023-05-07T10:32:09;0;0;
62236;PMS5003;69163;48.778;2.308;2023-05-07T10:34:32;2;2;
62236;PMS5003;69163;48.778;2.308;2023-05-07T10:36:54;1;1;
62236;PMS5003;69163;48.778;2.308;2023-05-07T10:39:20;1;1;
62236;PMS5003;69163;48.778;2.308;2023-05-07T10:41:50;0;0;
62236;PMS5003;69163;48.778;2.308;2023-05-07T10:46:40;3;1;
62236;PMS5003;69163;48.778;2.308;2023-05-07T10:49:07;1;1;
62236;PMS5003;69163;48.778;2.308;2023-05-07T10:51:26;3;1;
62236;PMS5003;69163;48.778;2.308;2023-05-07T10:56:23;1;1;
62236;PMS5003;69163;48.778;2.308;2023-05-07T10:58:41;2;2;
62236;PMS5003;69163;48.778;2.308;2023-05-07T11:01:06;2;1;
62236;PMS5003;69163;48.778;2.308;2023-05-07T11:03:31;1;1;
62236;PMS5003;69163;48.778;2.308;2023-05-07T11:08:22;0;0;
62236;PMS5003;69163;48.778;2.308;2023-05-07T11:10:48;0;0;
62236;PMS5003;69163;48.778;2.308;2023-05-07T11:13:12;1;1;
62236;PMS5003;69163;48.778;2.308;2023-05-07T11:15:39;1;1;
62236;PMS5003;69163;48.778;2.308;2023-05-07T11:18:03;1;1;
62236;PMS5003;69163;48.778;2.308;2023-05-07T11:22:53;1;1;
62236;PMS5003;69163;48.778;2.308;2023-05-07T11:25:18;2;2;
62236;PMS5003;69163;48.778;2.308;2023-05-07T11:27:43;1;1;
62236;PMS5003;69163;48.778;2.308;2023-05-07T11:30:09;1;1;
62236;PMS5003;69163;48.778;2.308;2023-05-07T11:32:34;1;1;
62236;PMS5003;69163;48.778;2.308;2023-05-07T11:34:59;2;2;
62236;PMS5003;69163;48.778;2.308;2023-05-07T11:37:25;2;2;
62236;PMS5003;69163;48.778;2.308;2023-05-07T11:39:50;2;2;
62236;PMS5003;69163;48.778;2.308;2023-05-07T11:44:41;1;1;
62236;PMS5003;69163;48.778;2.308;2023-05-07T11:47:05;1;1;
62236;PMS5003;69163;48.778;2.308;2023-05-07T11:49:30;2;2;
62236;PMS5003;69163;48.778;2.308;2023-05-07T11:51:56;2;2;
62236;PMS5003;69163;48.778;2.308;2023-05-07T11:54:21;1;1;
62236;PMS5003;69163;48.778;2.308;2023-05-07T11:56:46;2;2;
62236;PMS5003;69163;48.778;2.308;2023-05-07T11:59:11;2;2;
62236;PMS5003;69163;48.778;2.308;2023-05-07T12:01:36;1;1;
62236;PMS5003;69163;48.778;2.308;2023-05-07T12:04:02;2;2;
62236;PMS5003;69163;48.778;2.308;2023-05-07T12:06:27;1;1;
62236;PMS5003;69163;48.778;2.308;2023-05-07T12:08:52;2;2;
62236;PMS5003;69163;48.778;2.308;2023-05-07T12:11:22;2;2;
62236;PMS5003;69163;48.778;2.308;2023-05-07T12:13:43;2;2;
62236;PMS5003;69163;48.778;2.308;2023-05-07T12:16:09;2;2;
62236;PMS5003;69163;48.778;2.308;2023-05-07T12:18:34;2;2;
62236;PMS5003;69163;48.778;2.308;2023-05-07T12:20:59;1;1;
62236;PMS5003;69163;48.778;2.308;2023-05-07T12:23:23;2;2;
62236;PMS5003;69163;48.778;2.308;2023-05-07T12:25:48;0;0;
62236;PMS5003;69163;48.778;2.308;2023-05-07T12:28:14;2;2;
62236;PMS5003;69163;48.778;2.308;2023-05-07T12:30:39;3;3;
62236;PMS5003;69163;48.778;2.308;2023-05-07T12:33:04;1;1;
62236;PMS5003;69163;48.778;2.308;2023-05-07T12:35:29;2;1;
62236;PMS5003;69163;48.778;2.308;2023-05-07T12:37:55;2;2;
62236;PMS5003;69163;48.778;2.308;2023-05-07T12:40:20;1;1;
62236;PMS5003;69163;48.778;2.308;2023-05-07T12:42:45;2;2;
62236;PMS5003;69163;48.778;2.308;2023-05-07T12:45:11;1;1;
62236;PMS5003;69163;48.778;2.308;2023-05-07T12:47:36;2;2;
62236;PMS5003;69163;48.778;2.308;2023-05-07T12:50:01;2;2;
62236;PMS5003;69163;48.778;2.308;2023-05-07T12:52:26;2;2;
62236;PMS5003;69163;48.778;2.308;2023-05-07T12:54:51;1;1;
62236;PMS5003;69163;48.778;2.308;2023-05-07T12:57:18;1;1;
62236;PMS5003;69163;48.778;2.308;2023-05-07T12:59:41;1;1;
62236;PMS5003;69163;48.778;2.308;2023-05-07T13:02:07;2;2;
62236;PMS5003;69163;48.778;2.308;2023-05-07T13:04:32;2;2;
62236;PMS5003;69163;48.778;2.308;2023-05-07T13:06:57;2;2;
62236;PMS5003;69163;48.778;2.308;2023-05-07T13:09:22;3;3;
62236;PMS5003;69163;48.778;2.308;2023-05-07T13:11:48;2;2;
62236;PMS5003;69163;48.778;2.308;2023-05-07T13:14:13;2;2;
62236;PMS5003;69163;48.778;2.308;2023-05-07T13:16:38;1;1;
62236;PMS5003;69163;48.778;2.308;2023-05-07T13:19:03;1;1;
62236;PMS5003;69163;48.778;2.308;2023-05-07T13:21:28;2;2;
62236;PMS5003;69163;48.778;2.308;2023-05-07T13:23:53;2;1;
62236;PMS5003;69163;48.778;2.308;2023-05-07T13:26:19;1;1;
62236;PMS5003;69163;48.778;2.308;2023-05-07T13:28:44;2;2;
62236;PMS5003;69163;48.778;2.308;2023-05-07T13:31:09;0;0;
62236;PMS5003;69163;48.778;2.308;2023-05-07T13:33:34;2;2;
62236;PMS5003;69163;48.778;2.308;2023-05-07T13:35:59;1;1;
62236;PMS5003;69163;48.778;2.308;2023-05-07T13:38:25;1;1;
62236;PMS5003;69163;48.778;2.308;2023-05-07T13:40:50;3;3;
62236;PMS5003;69163;48.778;2.308;2023-05-07T13:43:15;1;1;
62236;PMS5003;69163;48.778;2.308;2023-05-07T13:45:40;2;2;
62236;PMS5003;69163;48.778;2.308;2023-05-07T13:48:05;2;2;
62236;PMS5003;69163;48.778;2.308;2023-05-07T13:50:31;1;1;
62236;PMS5003;69163;48.778;2.308;2023-05-07T13:52:56;2;2;
62236;PMS5003;69163;48.778;2.308;2023-05-07T13:55:21;1;1;
62236;PMS5003;69163;48.778;2.308;2023-05-07T13:57:47;3;3;
62236;PMS5003;69163;48.778;2.308;2023-05-07T14:00:12;2;2;
62236;PMS5003;69163;48.778;2.308;2023-05-07T14:02:37;2;2;
62236;PMS5003;69163;48.778;2.308;2023-05-07T14:05:02;2;2;
62236;PMS5003;69163;48.778;2.308;2023-05-07T14:07:27;3;3;
62236;PMS5003;69163;48.778;2.308;2023-05-07T14:09:52;4;3;
62236;PMS5003;69163;48.778;2.308;2023-05-07T14:12:18;2;2;
62236;PMS5003;69163;48.778;2.308;2023-05-07T14:14:43;2;2;
62236;PMS5003;69163;48.778;2.308;2023-05-07T14:17:08;1;1;
62236;PMS5003;69163;48.778;2.308;2023-05-07T14:19:33;3;1;
62236;PMS5003;69163;48.778;2.308;2023-05-07T14:21:58;3;3;
62236;PMS5003;69163;48.778;2.308;2023-05-07T14:24:24;2;2;
62236;PMS5003;69163;48.778;2.308;2023-05-07T14:26:49;3;1;
62236;PMS5003;69163;48.778;2.308;2023-05-07T14:29:14;2;1;
62236;PMS5003;69163;48.778;2.308;2023-05-07T14:31:39;3;3;
62236;PMS5003;69163;48.778;2.308;2023-05-07T14:34:05;1;1;
62236;PMS5003;69163;48.778;2.308;2023-05-07T14:36:30;2;2;
62236;PMS5003;69163;48.778;2.308;2023-05-07T14:38:55;1;1;
62236;PMS5003;69163;48.778;2.308;2023-05-07T14:41:21;1;1;
62236;PMS5003;69163;48.778;2.308;2023-05-07T14:43:45;3;3;
62236;PMS5003;69163;48.778;2.308;2023-05-07T14:46:11;2;2;
62236;PMS5003;69163;48.778;2.308;2023-05-07T14:48:36;3;3;
62236;PMS5003;69163;48.778;2.308;2023-05-07T14:51:01;2;1;
62236;PMS5003;69163;48.778;2.308;2023-05-07T14:53:27;5;5;
62236;PMS5003;69163;48.778;2.308;2023-05-07T14:55:52;2;2;
62236;PMS5003;69163;48.778;2.308;2023-05-07T14:58:17;2;2;
62236;PMS5003;69163;48.778;2.308;2023-05-07T15:00:42;3;2;
62236;PMS5003;69163;48.778;2.308;2023-05-07T15:03:09;3;3;
62236;PMS5003;69163;48.778;2.308;2023-05-07T15:05:32;2;2;
62236;PMS5003;69163;48.778;2.308;2023-05-07T15:08:00;4;2;
62236;PMS5003;69163;48.778;2.308;2023-05-07T15:10:23;3;3;
62236;PMS5003;69163;48.778;2.308;2023-05-07T15:12:48;2;2;
62236;PMS5003;69163;48.778;2.308;2023-05-07T15:15:13;2;2;
62236;PMS5003;69163;48.778;2.308;2023-05-07T15:17:38;3;3;
62236;PMS5003;69163;48.778;2.308;2023-05-07T15:20:05;2;2;
62236;PMS5003;69163;48.778;2.308;2023-05-07T15:22:29;3;3;
62236;PMS5003;69163;48.778;2.308;2023-05-07T15:24:54;3;3;
62236;PMS5003;69163;48.778;2.308;2023-05-07T15:27:19;2;2;
62236;PMS5003;69163;48.778;2.308;2023-05-07T15:29:45;3;3;
62236;PMS5003;69163;48.778;2.308;2023-05-07T15:32:10;2;2;
62236;PMS5003;69163;48.778;2.308;2023-05-07T15:34:35;3;3;
62236;PMS5003;69163;48.778;2.308;2023-05-07T15:37:00;1;1;
62236;PMS5003;69163;48.778;2.308;2023-05-07T15:39:25;3;3;
62236;PMS5003;69163;48.778;2.308;2023-05-07T15:41:51;4;4;
62236;PMS5003;69163;48.778;2.308;2023-05-07T15:44:16;1;1;
62236;PMS5003;69163;48.778;2.308;2023-05-07T15:46:41;2;2;
62236;PMS5003;69163;48.778;2.308;2023-05-07T15:49:06;3;3;
62236;PMS5003;69163;48.778;2.308;2023-05-07T15:51:33;2;2;
62236;PMS5003;69163;48.778;2.308;2023-05-07T15:53:57;3;3;
62236;PMS5003;69163;48.778;2.308;2023-05-07T15:56:22;2;2;
62236;PMS5003;69163;48.778;2.308;2023-05-07T15:58:47;7;6;
62236;PMS5003;69163;48.778;2.308;2023-05-07T16:01:12;3;3;
62236;PMS5003;69163;48.778;2.308;2023-05-07T16:03:38;5;4;
62236;PMS5003;69163;48.778;2.308;2023-05-07T16:06:03;3;3;
62236;PMS5003;69163;48.778;2.308;2023-05-07T16:08:28;7;4;
62236;PMS5003;69163;48.778;2.308;2023-05-07T16:10:53;6;6;
62236;PMS5003;69163;48.778;2.308;2023-05-07T16:13:18;8;6;
62236;PMS5003;69163;48.778;2.308;2023-05-07T16:15:44;9;8;
62236;PMS5003;69163;48.778;2.308;2023-05-07T16:18:09;8;7;
62236;PMS5003;69163;48.778;2.308;2023-05-07T16:20:34;7;7;
62236;PMS5003;69163;48.778;2.308;2023-05-07T16:22:59;8;7;
62236;PMS5003;69163;48.778;2.308;2023-05-07T16:25:24;5;5;
62236;PMS5003;69163;48.778;2.308;2023-05-07T16:27:51;6;6;
62236;PMS5003;69163;48.778;2.308;2023-05-07T16:30:15;8;6;
62236;PMS5003;69163;48.778;2.308;2023-05-07T16:32:40;7;4;
62236;PMS5003;69163;48.778;2.308;2023-05-07T16:35:06;6;5;
62236;PMS5003;69163;48.778;2.308;2023-05-07T16:37:32;6;6;
62236;PMS5003;69163;48.778;2.308;2023-05-07T16:39:58;24;17;
62236;PMS5003;69163;48.778;2.308;2023-05-07T16:42:22;40;30;
62236;PMS5003;69163;48.778;2.308;2023-05-07T16:44:48;10;9;
62236;PMS5003;69163;48.778;2.308;2023-05-07T16:47:13;9;8;